Time;durP1;ratioP1;P1;durP2;ratioP2;P2;SDS_P1;SDS_P2;PMS_P1;PMS_P2;Temp;Humidity;BMP_temperature;BMP_pressure;BME280_temperature;BME280_humidity;BME280_pressure;Samples;Min_cycle;Max_cycle;Signal;HPM_P1;HPM_P2
2024/02/04 00:01:01;;;;;;;3.50;0.75;;;;;;;7.74;100.00;101738.91;5003395;28;20057;-62
2024/02/04 00:03:28;;;;;;;1.90;0.80;;;;;;;7.73;100.00;101729.00;4978983;28;20515;-63
2024/02/04 00:05:56;;;;;;;1.52;0.77;;;;;;;7.72;100.00;101735.66;4986818;28;20050;-63
2024/02/04 00:08:23;;;;;;;7.85;2.70;;;;;;;7.72;100.00;101734.81;4986648;28;20047;-63
2024/02/04 00:10:51;;;;;;;6.43;1.77;;;;;;;7.73;100.00;101723.47;4989557;28;20073;-63
2024/02/04 00:13:18;;;;;;;2.88;1.38;;;;;;;7.75;100.00;101734.22;4987120;28;20046;-62
2024/02/04 00:15:45;;;;;;;2.35;1.45;;;;;;;7.76;100.00;101731.16;4986259;28;20052;-62
2024/02/04 00:18:13;;;;;;;4.38;2.33;;;;;;;7.76;100.00;101731.16;4987204;28;20046;-63
2024/02/04 00:20:41;;;;;;;3.70;2.63;;;;;;;7.78;100.00;101736.38;4986808;28;20054;-63
2024/02/04 00:23:08;;;;;;;3.08;2.60;;;;;;;7.80;100.00;101723.94;4987204;28;20803;-63
2024/02/04 00:25:37;;;;;;;4.60;4.03;;;;;;;7.81;100.00;101711.75;4985484;28;20164;-63
2024/02/04 00:28:05;;;;;;;5.35;3.95;;;;;;;7.83;100.00;101720.56;4983066;28;20073;-63
2024/02/04 00:30:32;;;;;;;4.75;3.97;;;;;;;7.84;100.00;101724.13;4986680;28;20046;-63
2024/02/04 00:33:02;;;;;;;7.80;5.32;;;;;;;7.84;100.00;101716.69;4990044;28;20057;-63
2024/02/04 00:35:31;;;;;;;7.28;5.28;;;;;;;7.85;100.00;101723.00;4990090;28;20047;-63
2024/02/04 00:37:58;;;;;;;8.63;5.78;;;;;;;7.87;100.00;101718.84;4990307;28;20050;-63
2024/02/04 00:40:26;;;;;;;6.20;4.85;;;;;;;7.88;100.00;101717.72;4989757;28;20069;-63
2024/02/04 00:42:53;;;;;;;7.03;5.22;;;;;;;7.89;100.00;101724.84;4990001;28;20062;-63
2024/02/04 00:45:21;;;;;;;7.75;5.35;;;;;;;7.89;100.00;101727.59;4990368;28;20408;-63
2024/02/04 00:47:48;;;;;;;8.43;5.40;;;;;;;7.90;100.00;101718.22;4989531;28;20840;-63
2024/02/04 00:50:15;;;;;;;6.97;6.28;;;;;;;7.92;100.00;101728.94;4989376;28;20057;-63
2024/02/04 00:52:43;;;;;;;6.72;5.30;;;;;;;7.92;100.00;101724.25;4971945;28;20089;-62
2024/02/04 00:55:10;;;;;;;8.77;6.07;;;;;;;7.93;100.00;101714.88;4988933;28;20716;-62
2024/02/04 00:57:37;;;;;;;5.95;5.10;;;;;;;7.92;100.00;101715.97;4985329;28;20043;-62
2024/02/04 01:00:06;;;;;;;7.78;5.05;;;;;;;7.94;100.00;101719.25;4989664;28;20042;-62
2024/02/04 01:02:34;;;;;;;5.57;5.00;;;;;;;7.94;100.00;101724.75;5004221;28;20053;-63
2024/02/04 01:05:01;;;;;;;5.47;4.90;;;;;;;7.95;100.00;101723.66;5000542;28;20047;-62
2024/02/04 01:07:28;;;;;;;6.47;5.00;;;;;;;7.98;100.00;101716.69;5005838;28;20500;-62
2024/02/04 01:09:56;;;;;;;4.82;4.38;;;;;;;8.00;100.00;101708.94;5005542;28;20409;-63
2024/02/04 01:12:23;;;;;;;6.22;4.55;;;;;;;8.03;100.00;101718.53;5009230;28;20046;-62
2024/02/04 01:14:50;;;;;;;6.32;5.00;;;;;;;8.02;100.00;101715.00;5009174;28;20053;-63
2024/02/04 01:17:18;;;;;;;7.63;4.45;;;;;;;8.03;100.00;101702.81;5006332;28;20057;-63
2024/02/04 01:19:45;;;;;;;6.20;4.05;;;;;;;8.02;100.00;101706.72;5009190;28;20042;-62
2024/02/04 01:22:13;;;;;;;4.68;4.13;;;;;;;8.04;100.00;101714.66;5009339;28;20061;-62
2024/02/04 01:24:40;;;;;;;5.97;4.32;;;;;;;8.04;100.00;101714.66;5009294;28;20049;-62
2024/02/04 01:27:07;;;;;;;4.22;3.72;;;;;;;8.04;100.00;101712.75;4991430;28;20045;-63
2024/02/04 01:29:35;;;;;;;5.32;4.38;;;;;;;8.03;100.00;101708.34;5008595;28;20558;-63
2024/02/04 01:32:02;;;;;;;5.15;3.78;;;;;;;8.03;100.00;101679.94;5009329;28;20048;-62
2024/02/04 01:34:30;;;;;;;6.93;4.28;;;;;;;8.04;100.00;101679.66;5008957;28;20061;-63
2024/02/04 01:36:57;;;;;;;6.00;4.53;;;;;;;8.05;100.00;101691.50;5008682;28;20045;-63
2024/02/04 01:39:25;;;;;;;5.80;3.97;;;;;;;8.05;100.00;101677.72;5008275;28;20053;-63
2024/02/04 01:41:52;;;;;;;5.72;4.72;;;;;;;8.04;100.00;101678.81;5005701;28;20049;-63
2024/02/04 01:44:21;;;;;;;8.65;4.43;;;;;;;8.05;100.00;101680.47;5007823;28;20057;-63
2024/02/04 01:46:50;;;;;;;6.07;4.38;;;;;;;8.04;100.00;101678.81;5008888;28;20125;-63
2024/02/04 01:49:17;;;;;;;5.40;3.83;;;;;;;8.05;100.00;101672.19;5008322;28;20431;-63
2024/02/04 01:51:45;;;;;;;4.80;4.25;;;;;;;8.05;100.00;101661.97;5008528;28;20038;-63
2024/02/04 01:54:13;;;;;;;4.95;3.80;;;;;;;8.05;100.00;101673.00;5008114;28;20049;-63
2024/02/04 01:56:41;;;;;;;6.53;3.20;;;;;;;8.04;100.00;101673.31;5002418;28;20050;-63
2024/02/04 01:59:10;;;;;;;3.97;3.53;;;;;;;8.05;100.00;101666.69;5007834;28;20065;-63
2024/02/04 02:01:37;;;;;;;5.43;4.05;;;;;;;8.05;100.00;101655.66;5008160;28;20061;-63
2024/02/04 02:04:05;;;;;;;4.20;3.47;;;;;;;8.05;100.00;101659.19;5007757;28;20054;-63
2024/02/04 02:06:33;;;;;;;5.80;3.83;;;;;;;8.07;100.00;101653.41;5008210;28;20057;-63
2024/02/04 02:09:03;;;;;;;6.78;4.32;;;;;;;8.06;100.00;101649.00;4991239;28;20500;-63
2024/02/04 02:11:40;;;;;;;5.45;3.80;;;;;;;8.06;100.00;101646.22;5007664;28;20046;-63
2024/02/04 02:14:13;;;;;;;4.28;3.40;;;;;;;8.06;100.00;101635.19;5007838;28;20053;-63
2024/02/04 02:16:41;;;;;;;7.30;4.72;;;;;;;8.07;100.00;101639.59;5007601;28;20060;-63
2024/02/04 02:19:27;;;;;;;5.90;3.70;;;;;;;8.06;100.00;101641.53;5004972;28;20045;-64
2024/02/04 02:22:14;;;;;;;6.93;4.18;;;;;;;8.06;100.00;101632.44;5001610;28;20084;-64
2024/02/04 02:24:42;;;;;;;6.55;3.20;;;;;;;8.06;100.00;101625.00;5007361;28;20061;-63
2024/02/04 02:27:09;;;;;;;3.97;3.53;;;;;;;8.06;100.00;101632.44;4990431;28;20052;-64
2024/02/04 02:29:38;;;;;;;5.88;3.30;;;;;;;8.07;100.00;101634.09;5007781;28;20046;-64
2024/02/04 02:32:05;;;;;;;3.15;2.80;;;;;;;8.07;100.00;101623.88;5007725;28;20077;-64
2024/02/04 02:34:33;;;;;;;2.40;2.13;;;;;;;8.09;100.00;101634.59;5007567;28;20073;-64
2024/02/04 02:37:21;;;;;;;3.90;2.97;;;;;;;8.10;100.00;101627.97;5006915;28;20049;-64
2024/02/04 02:40:12;;;;;;;4.18;2.20;;;;;;;8.09;100.00;101610.59;4989799;28;20046;-64
2024/02/04 02:42:43;;;;;;;3.03;2.33;;;;;;;8.10;100.00;101623.25;5007390;28;20828;-64
2024/02/04 02:45:12;;;;;;;3.80;2.35;;;;;;;8.12;100.00;101617.44;5007364;28;20400;-64
2024/02/04 02:47:41;;;;;;;2.05;1.80;;;;;;;8.12;100.00;101612.75;5007100;28;20054;-65
2024/02/04 02:50:08;;;;;;;2.05;1.70;;;;;;;8.13;100.00;101619.09;5006436;28;20050;-64
2024/02/04 02:52:36;;;;;;;2.47;1.50;;;;;;;8.14;100.00;101620.69;4989974;28;20057;-64
2024/02/04 02:55:05;;;;;;;1.30;1.20;;;;;;;8.16;100.00;101613.75;5007720;28;20499;-64
2024/02/04 02:57:32;;;;;;;1.98;1.77;;;;;;;8.18;100.00;101621.72;5000348;28;20042;-64
2024/02/04 02:59:59;;;;;;;1.52;1.20;;;;;;;8.19;100.00;101613.13;5006336;28;20046;-65
2024/02/04 03:02:27;;;;;;;2.45;1.70;;;;;;;8.21;100.00;101599.03;5083177;23;20068;-63
2024/02/04 03:04:54;;;;;;;1.88;1.45;;;;;;;8.22;100.00;101603.44;5008685;28;20072;-63
2024/02/04 03:07:21;;;;;;;1.55;1.45;;;;;;;8.23;100.00;101602.31;5007479;28;20072;-63
2024/02/04 03:09:49;;;;;;;2.38;1.55;;;;;;;8.23;100.00;101603.13;5008584;28;20050;-63
2024/02/04 03:12:16;;;;;;;2.10;1.30;;;;;;;8.25;100.00;101594.53;5009023;28;20063;-63
2024/02/04 03:14:43;;;;;;;1.40;1.27;;;;;;;8.25;100.00;101594.53;5008868;28;20077;-63
2024/02/04 03:17:12;;;;;;;1.73;1.63;;;;;;;8.25;100.00;101595.34;5008849;28;20046;-63
2024/02/04 03:19:39;;;;;;;2.33;1.55;;;;;;;8.27;100.00;101595.06;5008349;28;20061;-63
2024/02/04 03:22:07;;;;;;;2.00;1.45;;;;;;;8.27;100.00;101597.81;5008228;28;20057;-63
2024/02/04 03:24:34;;;;;;;1.20;1.10;;;;;;;8.28;100.00;101588.44;5009098;28;20054;-63
2024/02/04 03:27:01;;;;;;;2.40;1.50;;;;;;;8.28;100.00;101575.47;5008903;28;20049;-63
2024/02/04 03:29:29;;;;;;;1.38;1.27;;;;;;;8.28;100.00;101571.88;5008750;28;20046;-63
2024/02/04 03:31:56;;;;;;;2.05;1.48;;;;;;;8.28;100.00;101566.38;5008396;28;20053;-64
2024/02/04 03:34:23;;;;;;;1.33;1.00;;;;;;;8.28;100.00;101566.38;5008551;28;20623;-63
2024/02/04 03:36:51;;;;;;;2.65;0.93;;;;;;;8.27;100.00;101570.25;5008205;28;20049;-63
2024/02/04 03:39:18;;;;;;;1.98;0.82;;;;;;;8.27;100.00;101564.72;5008385;28;20057;-63
2024/02/04 03:41:46;;;;;;;0.80;0.80;;;;;;;8.24;100.00;101571.66;5008365;28;20045;-63
2024/02/04 03:44:13;;;;;;;1.02;0.60;;;;;;;8.23;100.00;101570.03;5008632;28;20046;-63
2024/02/04 03:46:40;;;;;;;0.50;0.50;;;;;;;8.25;100.00;101567.78;5008356;28;20046;-63
2024/02/04 03:49:08;;;;;;;0.82;0.47;;;;;;;8.27;100.00;101560.03;5008664;28;20385;-63
2024/02/04 03:51:35;;;;;;;0.68;0.45;;;;;;;8.28;100.00;101561.66;5011314;28;20410;-65
2024/02/04 03:54:03;;;;;;;0.80;0.43;;;;;;;8.28;100.00;101542.38;5027985;28;20080;-63
2024/02/04 03:56:30;;;;;;;0.35;0.35;;;;;;;8.26;100.00;101541.00;5016971;28;20065;-63
2024/02/04 03:58:58;;;;;;;0.38;0.38;;;;;;;8.26;100.00;101541.00;5007893;28;20376;-63
2024/02/04 04:01:25;;;;;;;0.40;0.40;;;;;;;8.25;100.00;101544.88;5007824;28;20108;-64
2024/02/04 04:03:52;;;;;;;0.20;0.20;;;;;;;8.22;100.00;101546.31;5008303;28;20064;-64
2024/02/04 04:06:20;;;;;;;0.35;0.30;;;;;;;8.23;100.00;101527.84;5008995;28;20053;-65
2024/02/04 04:08:48;;;;;;;0.25;0.25;;;;;;;8.23;100.00;101536.09;5011991;28;20046;-64
2024/02/04 04:11:15;;;;;;;0.50;0.35;;;;;;;8.25;100.00;101533.84;5012188;28;20049;-63
2024/02/04 04:13:43;;;;;;;0.98;0.30;;;;;;;8.26;100.00;101529.97;5012040;28;20046;-63
2024/02/04 04:16:10;;;;;;;0.40;0.32;;;;;;;8.26;100.00;101524.47;5012097;28;20057;-64
2024/02/04 04:18:38;;;;;;;0.35;0.20;;;;;;;8.28;100.00;101514.78;5012173;28;20100;-63
2024/02/04 04:21:05;;;;;;;0.40;0.40;;;;;;;8.29;100.00;101523.84;5011703;28;20061;-63
2024/02/04 04:23:33;;;;;;;0.52;0.52;;;;;;;8.28;100.00;101517.53;5012214;28;20046;-64
2024/02/04 04:26:00;;;;;;;0.57;0.40;;;;;;;8.29;100.00;101523.84;5012253;28;20053;-64
2024/02/04 04:28:29;;;;;;;1.55;0.70;;;;;;;8.28;100.00;101516.72;5012086;28;20075;-64
2024/02/04 04:30:56;;;;;;;0.85;0.38;;;;;;;8.28;100.00;101495.47;5011821;28;20053;-63
2024/02/04 04:33:23;;;;;;;3.50;0.43;;;;;;;8.29;100.00;101510.06;5011698;28;20060;-63
2024/02/04 04:35:51;;;;;;;0.55;0.32;;;;;;;8.25;100.00;101507.09;5011631;28;20072;-63
2024/02/04 04:38:19;;;;;;;0.38;0.30;;;;;;;8.26;100.00;101514.22;5009988;28;20054;-64
2024/02/04 04:40:46;;;;;;;0.35;0.35;;;;;;;8.27;100.00;101515.06;5005616;28;20049;-64
2024/02/04 04:43:13;;;;;;;0.32;0.32;;;;;;;8.28;100.00;101509.25;5010169;28;20304;-65
2024/02/04 04:45:43;;;;;;;0.40;0.40;;;;;;;8.29;100.00;101512.81;5011161;28;20053;-64
2024/02/04 04:48:10;;;;;;;0.40;0.40;;;;;;;8.29;100.00;101508.09;5010904;28;20060;-64
2024/02/04 04:50:38;;;;;;;0.52;0.30;;;;;;;8.29;100.00;101499.00;5011316;28;20052;-64
2024/02/04 04:53:05;;;;;;;0.40;0.40;;;;;;;8.31;100.00;101505.06;5011343;28;20046;-63
2024/02/04 04:55:32;;;;;;;0.68;0.50;;;;;;;8.29;100.00;101507.28;5011167;28;20050;-64
2024/02/04 04:58:00;;;;;;;0.57;0.57;;;;;;;8.28;100.00;101495.47;5010995;28;20070;-64
2024/02/04 05:00:27;;;;;;;0.40;0.40;;;;;;;8.29;100.00;101510.88;5010221;28;20387;-64
2024/02/04 05:02:55;;;;;;;1.58;0.77;;;;;;;8.29;100.00;101494.31;5010264;28;20065;-63
2024/02/04 05:05:22;;;;;;;0.47;0.47;;;;;;;8.28;100.00;101491.88;5011167;28;20638;-63
2024/02/04 05:07:49;;;;;;;0.60;0.55;;;;;;;8.26;100.00;101492.16;5010115;28;20411;-64
2024/02/04 05:10:17;;;;;;;0.63;0.40;;;;;;;8.24;100.00;101472.34;5010982;28;20065;-63
2024/02/04 05:12:44;;;;;;;0.40;0.40;;;;;;;8.22;100.00;101479.28;5010642;28;20177;-63
2024/02/04 05:15:11;;;;;;;0.57;0.40;;;;;;;8.17;100.00;101465.63;4997409;28;20051;-63
2024/02/04 05:17:39;;;;;;;0.32;0.30;;;;;;;8.12;100.00;101463.81;5009475;28;20045;-64
2024/02/04 05:20:07;;;;;;;0.38;0.38;;;;;;;8.09;100.00;101469.13;5009685;28;20446;-64
2024/02/04 05:22:36;;;;;;;0.88;0.70;;;;;;;8.07;100.00;101477.72;5010441;28;20514;-64
2024/02/04 05:25:04;;;;;;;0.65;0.43;;;;;;;8.06;100.00;101478.84;5010239;28;21128;-64
2024/02/04 05:27:32;;;;;;;0.77;0.30;;;;;;;8.05;100.00;101468.13;5001783;28;20053;-64
2024/02/04 05:30:02;;;;;;;0.17;0.17;;;;;;;8.06;100.00;101472.50;4993536;28;20050;-64
2024/02/04 05:32:29;;;;;;;0.10;0.10;;;;;;;8.07;100.00;101466.69;5010572;28;20057;-64
2024/02/04 05:34:57;;;;;;;1.15;0.57;;;;;;;8.09;100.00;101482.91;5010195;28;20053;-64
2024/02/04 05:37:24;;;;;;;0.40;0.30;;;;;;;8.11;100.00;101483.41;5010100;28;20050;-64
2024/02/04 05:39:52;;;;;;;1.33;0.20;;;;;;;8.15;100.00;101478.91;5009678;28;20046;-64
2024/02/04 05:42:19;;;;;;;0.17;0.17;;;;;;;8.18;100.00;101472.78;5010201;28;20045;-64
2024/02/04 05:44:46;;;;;;;0.22;0.20;;;;;;;8.20;100.00;101481.56;5009840;28;20053;-64
2024/02/04 05:47:14;;;;;;;0.57;0.20;;;;;;;8.22;100.00;101474.59;4999643;28;20078;-65
2024/02/04 05:49:41;;;;;;;0.13;0.10;;;;;;;8.25;100.00;101470.41;5007610;28;20404;-65
2024/02/04 05:52:09;;;;;;;0.85;0.30;;;;;;;8.28;100.00;101461.53;5010155;28;20058;-64
2024/02/04 05:54:39;;;;;;;3.13;0.15;;;;;;;8.31;100.00;101471.97;5009776;28;20140;-65
2024/02/04 05:57:08;;;;;;;2.28;0.75;;;;;;;8.33;100.00;101464.19;5010042;28;20140;-64
2024/02/04 05:59:35;;;;;;;0.20;0.20;;;;;;;8.34;100.00;101449.25;5009452;28;20645;-65
2024/02/04 06:02:03;;;;;;;0.10;0.10;;;;;;;8.36;100.00;101447.00;5009552;28;20058;-65
2024/02/04 06:04:31;;;;;;;0.08;0.08;;;;;;;8.38;100.00;101451.06;5010182;28;20975;-64
2024/02/04 06:06:59;;;;;;;0.20;0.20;;;;;;;8.40;100.00;101451.56;5009675;28;20050;-65
2024/02/04 06:09:26;;;;;;;0.15;0.10;;;;;;;8.43;100.00;101447.38;4997225;28;20061;-64
2024/02/04 06:11:54;;;;;;;0.20;0.20;;;;;;;8.44;100.00;101446.25;4995952;28;20058;-65
2024/02/04 06:14:21;;;;;;;0.45;0.10;;;;;;;8.46;100.00;101435.69;5009639;28;20049;-64
2024/02/04 06:16:48;;;;;;;0.43;0.20;;;;;;;8.48;100.00;101433.44;5009049;28;20763;-64
2024/02/04 06:19:16;;;;;;;0.10;0.10;;;;;;;8.49;100.00;101419.34;5009900;28;20050;-64
2024/02/04 06:21:43;;;;;;;0.20;0.20;;;;;;;8.51;100.00;101399.69;5009198;28;20065;-65
2024/02/04 06:24:11;;;;;;;0.10;0.00;;;;;;;8.53;100.00;101392.72;5009732;28;20042;-64
2024/02/04 06:26:39;;;;;;;0.28;0.28;;;;;;;8.55;100.00;101397.94;4996251;28;21153;-64
2024/02/04 06:29:07;;;;;;;0.20;0.20;;;;;;;8.57;100.00;101404.78;5001044;28;20783;-64
2024/02/04 06:31:34;;;;;;;0.03;0.03;;;;;;;8.59;100.00;101407.22;5003185;28;20045;-65
2024/02/04 06:34:01;;;;;;;0.55;0.10;;;;;;;8.60;100.00;101408.03;4998686;28;20061;-64
2024/02/04 06:36:29;;;;;;;0.10;0.10;;;;;;;8.61;100.00;101399.44;5009205;28;20045;-65
2024/02/04 06:38:56;;;;;;;0.15;0.08;;;;;;;8.63;100.00;101401.88;5008973;28;20045;-65
2024/02/04 06:41:24;;;;;;;0.20;0.20;;;;;;;8.65;100.00;101405.13;5008720;28;21629;-64
2024/02/04 06:43:51;;;;;;;0.35;0.20;;;;;;;8.66;100.00;101398.50;5009056;28;20045;-65
2024/02/04 06:46:27;;;;;;;3.60;0.40;;;;;;;8.68;100.00;101385.19;5008921;28;20050;-65
2024/02/04 06:48:55;;;;;;;1.85;0.22;;;;;;;8.68;100.00;101382.44;5008802;28;20419;-65
2024/02/04 06:51:23;;;;;;;2.08;0.40;;;;;;;8.69;100.00;101378.50;5008866;28;20407;-65
2024/02/04 06:53:50;;;;;;;2.30;0.45;;;;;;;8.70;100.00;101363.59;5014361;28;20037;-65
2024/02/04 06:56:17;;;;;;;0.43;0.40;;;;;;;8.72;100.00;101364.91;5009383;28;20053;-65
2024/02/04 06:58:45;;;;;;;1.50;0.45;;;;;;;8.73;100.00;101369.31;5008753;28;20041;-65
2024/02/04 07:01:12;;;;;;;2.60;0.50;;;;;;;8.75;100.00;101378.06;5008563;28;20046;-64
2024/02/04 07:03:40;;;;;;;0.47;0.40;;;;;;;8.78;100.00;101366.41;5008707;28;20061;-65
2024/02/04 07:06:07;;;;;;;6.55;1.60;;;;;;;8.81;100.00;101365.78;5008263;28;20042;-65
2024/02/04 07:08:36;;;;;;;6.35;1.33;;;;;;;8.82;100.00;101361.84;4991229;28;20056;-67
2024/02/04 07:11:03;;;;;;;3.33;0.70;;;;;;;8.85;100.00;101366.75;5009000;28;20086;-65
2024/02/04 07:13:30;;;;;;;4.05;1.10;;;;;;;8.87;100.00;101353.44;5008511;28;20053;-65
2024/02/04 07:15:58;;;;;;;6.43;1.05;;;;;;;8.89;100.00;101361.41;5008512;28;20096;-65
2024/02/04 07:18:26;;;;;;;5.15;0.73;;;;;;;8.90;100.00;101363.84;4991308;28;20057;-65
2024/02/04 07:20:53;;;;;;;6.35;1.75;;;;;;;8.90;100.00;101363.84;5008275;28;20061;-65
2024/02/04 07:23:21;;;;;;;5.65;1.13;;;;;;;8.92;100.00;101355.25;5008041;28;20046;-65
2024/02/04 07:25:49;;;;;;;4.43;0.98;;;;;;;8.95;100.00;101346.31;5008361;28;20061;-65
2024/02/04 07:28:16;;;;;;;7.85;1.05;;;;;;;8.97;100.00;101344.88;5008450;28;20042;-64
2024/02/04 07:30:43;;;;;;;5.35;1.25;;;;;;;8.99;100.00;101350.91;5008069;28;20077;-65
2024/02/04 07:33:11;;;;;;;5.20;1.30;;;;;;;9.01;100.00;101340.34;5008145;28;20050;-65
2024/02/04 07:35:38;;;;;;;7.13;1.42;;;;;;;9.04;100.00;101342.47;5008109;28;20053;-65
2024/02/04 07:38:05;;;;;;;1.85;0.85;;;;;;;9.10;100.00;101345.91;5007783;28;20072;-66
2024/02/04 07:40:33;;;;;;;4.38;0.80;;;;;;;9.12;100.00;101324.28;5007378;28;20049;-64
2024/02/04 07:43:00;;;;;;;4.13;1.02;;;;;;;9.15;100.00;101324.47;5004852;28;20038;-66
2024/02/04 07:45:27;;;;;;;3.75;0.70;;;;;;;9.18;100.00;101321.06;5008157;28;20038;-64
2024/02/04 07:47:55;;;;;;;4.00;1.30;;;;;;;9.22;100.00;101323.16;5008114;28;20061;-65
2024/02/04 07:50:22;;;;;;;3.70;0.90;;;;;;;9.24;100.00;101323.66;5008518;28;20052;-65
2024/02/04 07:52:50;;;;;;;2.90;0.93;;;;;;;9.27;100.00;101317.47;5008239;28;20068;-65
2024/02/04 07:55:17;;;;;;;4.60;1.05;;;;;;;9.29;100.00;101315.22;5008553;28;20050;-65
2024/02/04 07:57:45;;;;;;;3.13;1.10;;;;;;;9.31;100.00;101319.28;5008508;28;20057;-64
2024/02/04 08:00:12;;;;;;;1.88;0.70;;;;;;;9.33;100.00;101310.66;5008671;28;20417;-65
2024/02/04 08:02:40;;;;;;;5.28;1.20;;;;;;;9.36;100.00;101312.78;5006874;28;20057;-66
2024/02/04 08:05:07;;;;;;;2.92;0.70;;;;;;;9.39;100.00;101309.38;5008778;28;20046;-65
2024/02/04 08:07:35;;;;;;;2.92;1.05;;;;;;;9.43;100.00;101313.09;5008286;28;20046;-67
2024/02/04 08:10:03;;;;;;;2.33;0.90;;;;;;;9.45;100.00;101308.09;4996996;28;20051;-64
2024/02/04 08:12:30;;;;;;;3.30;0.77;;;;;;;9.47;100.00;101290.06;5006963;28;20054;-64
2024/02/04 08:14:58;;;;;;;8.50;0.80;;;;;;;9.49;100.00;101276.72;5008381;28;20054;-65
2024/02/04 08:17:28;;;;;;;1.85;0.60;;;;;;;9.51;100.00;101273.59;4995465;28;20054;-64
2024/02/04 08:19:56;;;;;;;1.90;0.93;;;;;;;9.52;100.00;101278.81;5008611;28;20054;-65
2024/02/04 08:22:23;;;;;;;3.47;0.73;;;;;;;9.56;100.00;101278.97;5002103;28;20058;-64
2024/02/04 08:24:51;;;;;;;2.15;0.45;;;;;;;9.59;100.00;101272.78;4999972;28;20046;-64
2024/02/04 08:27:18;;;;;;;2.05;0.73;;;;;;;9.64;100.00;101272.63;5008233;28;20048;-64
2024/02/04 08:29:45;;;;;;;1.33;0.55;;;;;;;9.67;100.00;101260.91;5008337;28;20550;-65
2024/02/04 08:32:13;;;;;;;1.98;0.65;;;;;;;9.69;100.00;101272.47;5008204;28;20053;-65
2024/02/04 08:34:41;;;;;;;5.55;0.60;;;;;;;9.71;100.00;101262.72;5007598;28;20056;-66
2024/02/04 08:37:08;;;;;;;1.50;0.40;;;;;;;9.75;100.00;101251.81;5007322;28;20045;-65
2024/02/04 08:39:36;;;;;;;2.65;0.20;;;;;;;9.77;100.00;101252.28;4990353;28;20057;-67
2024/02/04 08:42:03;;;;;;;1.38;0.47;;;;;;;9.82;100.00;101248.56;5007929;28;20075;-65
2024/02/04 08:44:31;;;;;;;2.53;0.65;;;;;;;9.83;100.00;101239.91;5007847;28;20050;-65
2024/02/04 08:47:09;;;;;;;2.90;0.50;;;;;;;9.85;100.00;101248.69;5008375;28;20042;-64
2024/02/04 08:49:37;;;;;;;1.17;0.50;;;;;;;9.88;100.00;101242.50;5007985;28;20053;-65
2024/02/04 08:52:05;;;;;;;4.30;0.57;;;;;;;9.92;100.00;101243.50;5008261;28;20427;-65
2024/02/04 08:54:34;;;;;;;1.40;0.57;;;;;;;9.95;100.00;101251.13;5012158;28;20050;-65
2024/02/04 08:57:03;;;;;;;5.80;1.90;;;;;;;9.98;100.00;101239.41;5012026;28;20053;-65
2024/02/04 08:59:30;;;;;;;1.13;0.40;;;;;;;10.00;100.00;101233.53;5012043;28;20054;-65
2024/02/04 09:01:57;;;;;;;0.47;0.38;;;;;;;10.02;100.00;101236.78;5011640;28;20076;-65
2024/02/04 09:04:25;;;;;;;1.95;0.60;;;;;;;10.04;100.00;101235.31;5011885;28;20065;-66
2024/02/04 09:06:52;;;;;;;3.88;0.30;;;;;;;10.03;100.00;101233.72;5011405;28;20050;-65
2024/02/04 09:09:20;;;;;;;2.72;0.35;;;;;;;10.07;100.00;101234.66;5011440;28;20388;-65
2024/02/04 09:11:47;;;;;;;0.25;0.15;;;;;;;10.09;100.00;101248.97;5011611;28;20058;-65
2024/02/04 09:14:14;;;;;;;1.30;0.40;;;;;;;10.15;100.00;101227.50;5011664;28;20049;-65
2024/02/04 09:16:42;;;;;;;0.13;0.10;;;;;;;10.18;100.00;101243.44;5012281;28;20089;-65
2024/02/04 09:19:09;;;;;;;0.35;0.10;;;;;;;10.21;100.00;101229.78;5010922;28;20038;-65
2024/02/04 09:21:37;;;;;;;0.35;0.22;;;;;;;10.24;100.00;101215.28;5010968;28;20081;-64
2024/02/04 09:24:04;;;;;;;0.77;0.30;;;;;;;10.29;100.00;101228.13;5010581;28;20042;-64
2024/02/04 09:26:32;;;;;;;1.52;0.40;;;;;;;10.31;100.00;101221.09;5011267;28;20049;-64
2024/02/04 09:28:59;;;;;;;0.77;0.30;;;;;;;10.32;100.00;101227.47;5010547;28;20526;-66
2024/02/04 09:31:28;;;;;;;0.38;0.20;;;;;;;10.34;100.00;101225.97;5009466;28;20058;-64
2024/02/04 09:33:56;;;;;;;1.55;0.20;;;;;;;10.36;100.00;101223.69;5011452;28;20046;-64
2024/02/04 09:36:23;;;;;;;0.73;0.30;;;;;;;10.37;100.00;101219.78;5010266;28;20054;-66
2024/02/04 09:38:51;;;;;;;0.32;0.20;;;;;;;10.40;100.00;101218.31;5010810;28;20053;-65
2024/02/04 09:41:19;;;;;;;3.30;0.52;;;;;;;10.43;100.00;101219.59;4998060;28;20042;-64
2024/02/04 09:43:49;;;;;;;0.38;0.28;;;;;;;10.45;100.00;101209.00;5011024;28;20061;-64
2024/02/04 09:46:17;;;;;;;0.47;0.30;;;;;;;10.48;100.00;101233.25;5007643;28;20362;-66
2024/02/04 09:48:45;;;;;;;2.58;0.40;;;;;;;10.50;100.00;101217.13;4991712;28;20066;-64
2024/02/04 09:51:13;;;;;;;4.82;0.90;;;;;;;10.54;100.00;101234.69;5004315;28;20411;-64
2024/02/04 09:53:44;;;;;;;1.85;0.50;;;;;;;10.57;100.00;101220.16;5002024;28;20392;-65
2024/02/04 09:56:14;;;;;;;2.25;0.68;;;;;;;10.60;100.00;101233.34;5010900;28;20038;-64
2024/02/04 09:58:45;;;;;;;2.15;0.60;;;;;;;10.62;100.00;101247.66;5010673;28;20049;-64
2024/02/04 10:01:15;;;;;;;2.30;0.60;;;;;;;10.66;100.00;101234.78;5004902;28;20066;-64
2024/02/04 10:03:43;;;;;;;3.50;0.52;;;;;;;10.69;100.00;101225.81;5006575;28;20157;-64
2024/02/04 10:06:10;;;;;;;2.03;0.80;;;;;;;10.71;100.00;101234.59;5003827;28;20046;-64
2024/02/04 10:08:38;;;;;;;7.45;1.80;;;;;;;10.74;100.00;101256.09;5004620;28;20060;-68
2024/02/04 10:11:06;;;;;;;2.75;1.30;;;;;;;10.75;100.00;101241.09;5003667;28;20411;-64
2024/02/04 10:13:45;;;;;;;2.60;0.88;;;;;;;10.78;100.00;101251.47;4987067;28;20046;-66
2024/02/04 10:16:14;;;;;;;1.80;1.10;;;;;;;10.80;100.00;101252.00;4990514;28;20054;-64
2024/02/04 10:18:45;;;;;;;4.57;1.25;;;;;;;10.82;100.00;101258.00;5009824;28;20046;-65
2024/02/04 10:21:21;;;;;;;3.88;0.70;;;;;;;10.84;100.00;101244.63;5010430;28;20057;-64
2024/02/04 10:23:49;;;;;;;1.52;0.73;;;;;;;10.88;100.00;101257.44;5009773;28;20054;-66
2024/02/04 10:26:20;;;;;;;1.52;0.60;;;;;;;10.90;100.00;101259.91;5010659;28;20156;-67
2024/02/04 10:28:49;;;;;;;1.05;0.50;;;;;;;10.91;100.00;101267.06;5009498;28;20050;-65
2024/02/04 10:31:16;;;;;;;4.05;0.80;;;;;;;10.90;100.00;101255.19;4992178;28;20096;-64
2024/02/04 10:33:43;;;;;;;4.78;0.90;;;;;;;10.92;100.00;101277.00;5009236;28;20052;-65
2024/02/04 10:36:12;;;;;;;1.95;0.75;;;;;;;10.92;100.00;101263.16;5010221;28;20388;-64
2024/02/04 10:38:39;;;;;;;2.78;0.90;;;;;;;10.94;100.00;101258.06;5009375;28;20053;-66
2024/02/04 10:41:07;;;;;;;6.28;0.98;;;;;;;10.96;100.00;101266.88;5009577;28;20053;-63
2024/02/04 10:43:34;;;;;;;3.30;0.85;;;;;;;10.98;100.00;101261.81;5009665;28;20052;-63
2024/02/04 10:46:20;;;;;;;5.10;1.20;;;;;;;11.00;100.00;101251.19;5009255;28;20052;-62
2024/02/04 10:49:00;;;;;;;3.22;1.33;;;;;;;11.03;100.00;101247.75;5009940;28;20037;-64
2024/02/04 10:51:31;;;;;;;2.75;0.90;;;;;;;11.06;100.00;101252.63;5009700;28;20056;-63
2024/02/04 10:54:02;;;;;;;9.00;2.58;;;;;;;11.07;100.00;101268.09;5009601;28;20065;-63
2024/02/04 10:56:40;;;;;;;3.83;1.20;;;;;;;11.10;100.00;101253.56;5003593;28;20045;-63
2024/02/04 10:59:11;;;;;;;3.92;1.20;;;;;;;11.14;100.00;101256.50;5009403;28;20061;-63
2024/02/04 11:01:41;;;;;;;6.60;1.10;;;;;;;11.17;100.00;101259.41;5009592;28;20072;-63
2024/02/04 11:04:14;;;;;;;5.78;1.70;;;;;;;11.21;100.00;101260.34;4991798;28;20463;-63
2024/02/04 11:06:42;;;;;;;;;;;;;;;11.22;100.00;101259.22;4999695;28;20061;-63
2024/02/04 11:09:12;;;;;;;4.82;1.58;;;;;;;11.25;100.00;101254.97;5003050;28;19926;-63
2024/02/04 11:11:40;;;;;;;6.55;2.17;;;;;;;11.28;100.00;101254.28;5000583;28;20068;-65
2024/02/04 11:14:14;;;;;;;6.32;1.42;;;;;;;11.32;100.00;101261.56;5004869;28;20081;-64
2024/02/04 11:16:45;;;;;;;6.35;1.80;;;;;;;11.35;100.00;101254.53;4996280;28;20050;-63
2024/02/04 11:19:12;;;;;;;7.88;1.85;;;;;;;11.37;100.00;101264.16;5008842;28;20053;-63
2024/02/04 11:21:44;;;;;;;11.20;3.33;;;;;;;11.40;100.00;101257.94;5009114;28;20062;-64
2024/02/04 11:24:50;;;;;;;11.30;3.00;;;;;;;11.44;100.00;101256.09;5009328;28;20061;-65
2024/02/04 11:27:18;;;;;;;9.60;2.45;;;;;;;11.47;100.00;101252.66;5001344;28;20479;-65
2024/02/04 11:29:45;;;;;;;6.00;1.90;;;;;;;11.52;100.00;101265.47;5008735;28;20049;-64